createdAt,value
2022-08-08T00:00:52.901Z,0.83
2022-08-08T00:02:33.855Z,0.80
2022-08-08T00:04:48.945Z,0.97
2022-08-08T00:07:12.504Z,0.93
2022-08-08T00:09:22.357Z,1.17
2022-08-08T00:11:46.790Z,1.10
2022-08-08T00:14:15.692Z,1.10
2022-08-08T00:16:28.881Z,1.10
2022-08-08T00:18:40.794Z,1.00
2022-08-08T00:20:50.725Z,1.00
2022-08-08T00:22:58.013Z,1.30
2022-08-08T00:25:06.184Z,1.00
2022-08-08T00:27:14.098Z,0.83
2022-08-08T00:29:44.802Z,1.10
2022-08-08T00:32:28.513Z,1.10
2022-08-08T00:35:04.757Z,1.10
2022-08-08T00:37:47.443Z,1.53
2022-08-08T00:41:08.926Z,1.20
2022-08-08T00:42:46.049Z,0.90
2022-08-08T00:45:35.165Z,0.90
2022-08-08T00:48:30.203Z,0.87
2022-08-08T00:51:21.997Z,0.90
2022-08-08T00:54:13.382Z,1.23
2022-08-08T00:56:44.879Z,0.80
2022-08-08T00:59:44.638Z,1.00
2022-08-08T01:03:15.192Z,1.00
2022-08-08T01:05:04.253Z,1.03
2022-08-08T01:07:56.490Z,0.73
2022-08-08T01:10:44.492Z,1.00
2022-08-08T01:13:37.989Z,1.00
2022-08-08T01:16:17.371Z,1.00
2022-08-08T01:18:56.887Z,0.90
2022-08-08T01:22:10.234Z,1.07
2022-08-08T01:24:29.009Z,0.97
2022-08-08T01:26:56.892Z,1.00
2022-08-08T01:29:58.559Z,0.90
2022-08-08T01:32:53.145Z,0.93
2022-08-08T01:35:38.538Z,0.97
2022-08-08T01:38:11.274Z,0.97
2022-08-08T01:40:30.979Z,0.90
2022-08-08T01:42:40.674Z,1.07
2022-08-08T01:45:02.830Z,0.80
2022-08-08T01:48:23.614Z,1.00
2022-08-08T01:49:53.748Z,0.80
2022-08-08T01:52:51.347Z,1.03
2022-08-08T01:55:25.562Z,0.87
2022-08-08T01:57:33.724Z,1.07
2022-08-08T02:00:18.199Z,0.80
2022-08-08T02:02:42.403Z,0.63
2022-08-08T02:04:58.781Z,0.80
2022-08-08T02:07:06.371Z,0.90
2022-08-08T02:10:01.814Z,1.10
2022-08-08T02:12:00.553Z,0.90
2022-08-08T02:14:20.432Z,0.90
2022-08-08T02:16:29.764Z,0.97
2022-08-08T02:18:40.607Z,0.70
2022-08-08T02:21:08.523Z,1.00
2022-08-08T02:23:31.699Z,0.90
2022-08-08T02:25:48.514Z,1.20
2022-08-08T02:28:02.920Z,0.77
2022-08-08T02:30:20.749Z,1.70
2022-08-08T02:32:39.224Z,1.00
2022-08-08T02:35:19.434Z,1.10
2022-08-08T02:37:57.168Z,1.10
2022-08-08T02:40:10.508Z,1.33
2022-08-08T02:42:47.875Z,0.90
2022-08-08T02:45:51.747Z,1.00
2022-08-08T02:48:37.323Z,0.90
2022-08-08T02:51:21.260Z,1.10
2022-08-08T02:53:50.706Z,0.73
2022-08-08T02:56:52.837Z,1.40
2022-08-08T02:59:55.652Z,0.83
2022-08-08T03:02:21.172Z,1.03
2022-08-08T03:05:24.873Z,1.00
2022-08-08T03:08:10.373Z,0.80
2022-08-08T03:10:53.799Z,0.80
2022-08-08T03:16:00.784Z,1.00
2022-08-08T03:16:34.282Z,0.93
2022-08-08T03:18:53.505Z,0.80
2022-08-08T03:20:57.189Z,1.20
2022-08-08T03:23:04.897Z,0.90
2022-08-08T03:25:17.934Z,0.90
2022-08-08T03:27:31.347Z,1.10
2022-08-08T03:29:56.241Z,1.00
2022-08-08T03:32:19.010Z,1.03
2022-08-08T03:34:22.609Z,0.83
2022-08-08T03:36:31.351Z,0.90
2022-08-08T03:38:53.779Z,0.93
2022-08-08T03:42:03.904Z,0.80
2022-08-08T03:43:38.221Z,1.03
2022-08-08T03:46:07.019Z,1.23
2022-08-08T03:48:08.609Z,0.90
2022-08-08T03:50:26.560Z,1.03
2022-08-08T03:52:33.913Z,1.07
2022-08-08T03:54:41.381Z,0.90
2022-08-08T03:58:30.011Z,1.03
2022-08-08T03:59:30.685Z,1.10
2022-08-08T04:02:15.794Z,0.90
2022-08-08T04:04:01.898Z,0.73
2022-08-08T04:06:18.140Z,0.90
2022-08-08T04:08:33.564Z,0.70
2022-08-08T04:10:41.550Z,1.07
2022-08-08T04:12:47.934Z,1.30
2022-08-08T04:14:53.125Z,0.80
2022-08-08T04:16:58.477Z,1.13
2022-08-08T04:19:01.440Z,0.83
2022-08-08T04:21:06.499Z,1.40
2022-08-08T04:23:10.495Z,1.17
2022-08-08T04:25:18.287Z,1.03
2022-08-08T04:28:03.090Z,1.20
2022-08-08T04:30:00.646Z,1.03
2022-08-08T04:32:10.591Z,1.10
2022-08-08T04:34:14.083Z,1.17
2022-08-08T04:36:21.301Z,1.07
2022-08-08T04:38:24.328Z,1.10
2022-08-08T04:40:30.599Z,1.60
2022-08-08T04:42:36.932Z,1.20
2022-08-08T04:44:40.507Z,1.00
2022-08-08T04:46:43.603Z,1.33
2022-08-08T04:48:46.735Z,1.50
2022-08-08T04:50:51.405Z,1.30
2022-08-08T04:53:04.834Z,1.23
2022-08-08T04:55:09.846Z,1.60
2022-08-08T04:57:13.717Z,1.47
2022-08-08T04:59:18.516Z,1.63
2022-08-08T05:01:35.493Z,1.87
2022-08-08T05:04:08.210Z,1.50
2022-08-08T05:06:25.887Z,1.90
2022-08-08T05:08:32.055Z,1.30
2022-08-08T05:10:34.953Z,1.83
2022-08-08T05:12:53.323Z,1.30
2022-08-08T05:15:04.383Z,1.30
2022-08-08T05:17:10.639Z,1.27
2022-08-08T05:20:12.763Z,1.37
2022-08-08T05:21:43.453Z,1.60
2022-08-08T05:24:04.307Z,1.40
2022-08-08T05:26:14.311Z,1.60
2022-08-08T05:28:55.779Z,1.17
2022-08-08T05:30:47.263Z,1.57
2022-08-08T05:32:53.745Z,1.33
2022-08-08T05:35:01.835Z,1.20
2022-08-08T05:37:17.237Z,1.30
2022-08-08T05:39:25.227Z,1.43
2022-08-08T05:41:55.106Z,1.67
2022-08-08T05:44:14.388Z,1.43
2022-08-08T05:46:22.269Z,1.33
2022-08-08T05:48:31.154Z,1.30
2022-08-08T05:50:36.228Z,1.43
2022-08-08T05:52:40.753Z,1.10
2022-08-08T05:54:51.127Z,1.53
2022-08-08T05:56:57.321Z,1.33
2022-08-08T05:59:05.990Z,1.37
2022-08-08T06:01:55.786Z,1.57
2022-08-08T06:03:43.807Z,1.40
2022-08-08T06:05:59.245Z,1.20
2022-08-08T06:08:20.389Z,1.50
2022-08-08T06:10:29.942Z,1.37
2022-08-08T06:12:33.956Z,1.50
2022-08-08T06:14:38.149Z,1.40
2022-08-08T06:16:52.453Z,1.47
2022-08-08T06:19:07.325Z,1.53
2022-08-08T06:21:28.389Z,1.40
2022-08-08T06:23:52.948Z,1.63
2022-08-08T06:26:38.766Z,1.37
2022-08-08T06:28:33.155Z,1.20
2022-08-08T06:30:37.817Z,1.63
2022-08-08T06:32:47.517Z,1.10
2022-08-08T06:35:12.140Z,1.07
2022-08-08T06:37:25.914Z,1.20
2022-08-08T06:39:35.748Z,1.20
2022-08-08T06:42:02.629Z,1.17
2022-08-08T06:44:18.752Z,1.30
2022-08-08T06:46:31.912Z,1.30
2022-08-08T06:48:36.701Z,1.70
2022-08-08T06:50:42.927Z,1.50
2022-08-08T06:52:50.451Z,1.70
2022-08-08T06:54:58.482Z,1.60
2022-08-08T06:57:02.367Z,1.50
2022-08-08T06:59:12.064Z,1.60
2022-08-08T07:02:17.564Z,1.30
2022-08-08T07:04:37.863Z,1.50
2022-08-08T07:06:23.437Z,1.70
2022-08-08T07:08:34.686Z,1.57
2022-08-08T07:10:44.569Z,1.97
2022-08-08T07:12:55.288Z,1.97
2022-08-08T07:15:11.449Z,1.90
2022-08-08T07:17:56.820Z,2.10
2022-08-08T07:20:07.598Z,2.30
2022-08-08T07:22:25.108Z,2.13
2022-08-08T07:24:34.351Z,2.33
2022-08-08T07:26:41.129Z,2.40
2022-08-08T07:28:46.637Z,2.37
2022-08-08T07:30:50.491Z,2.33
2022-08-08T07:32:54.756Z,2.73
2022-08-08T07:35:08.441Z,2.63
2022-08-08T07:37:18.485Z,2.50
2022-08-08T07:39:29.828Z,2.30
2022-08-08T07:42:03.817Z,2.33
2022-08-08T07:44:33.503Z,2.20
2022-08-08T07:46:32.535Z,2.30
2022-08-08T07:48:42.094Z,2.30
2022-08-08T07:50:47.432Z,2.67
2022-08-08T07:52:57.294Z,2.20
2022-08-08T07:55:05.525Z,2.40
2022-08-08T07:57:23.892Z,2.67
2022-08-08T07:59:37.431Z,2.33
2022-08-08T08:02:34.430Z,2.27
2022-08-08T08:04:16.257Z,2.20
2022-08-08T08:06:22.085Z,2.53
2022-08-08T08:08:39.162Z,2.43
2022-08-08T08:10:47.172Z,2.73
2022-08-08T08:12:54.919Z,2.70
2022-08-08T08:15:05.034Z,2.53
2022-08-08T08:17:13.946Z,2.43
2022-08-08T08:19:17.949Z,2.50
2022-08-08T08:21:44.140Z,2.50
2022-08-08T08:23:53.865Z,2.60
2022-08-08T08:26:06.148Z,2.50
2022-08-08T08:28:09.374Z,2.50
2022-08-08T08:30:13.963Z,2.50
2022-08-08T08:32:32.010Z,2.30
2022-08-08T08:34:43.067Z,1.93
2022-08-08T08:36:51.488Z,2.60
2022-08-08T08:39:00.324Z,2.30
2022-08-08T08:41:16.858Z,2.40
2022-08-08T08:43:26.782Z,2.53
2022-08-08T08:45:33.213Z,1.83
2022-08-08T08:47:43.937Z,2.00
2022-08-08T08:49:48.281Z,2.00
2022-08-08T08:51:52.733Z,2.30
2022-08-08T08:53:59.761Z,2.10
2022-08-08T08:56:11.288Z,2.30
2022-08-08T08:58:25.361Z,2.47
2022-08-08T09:00:44.569Z,2.40
2022-08-08T09:02:53.681Z,3.33
2022-08-08T09:05:00.193Z,2.10
2022-08-08T09:07:12.218Z,2.40
2022-08-08T09:09:36.189Z,2.27
2022-08-08T09:12:02.143Z,2.60
2022-08-08T09:14:12.311Z,2.23
2022-08-08T09:16:17.138Z,1.90
2022-08-08T09:18:21.473Z,2.23
2022-08-08T09:22:02.794Z,1.97
2022-08-08T09:22:55.304Z,2.00
2022-08-08T09:25:02.784Z,2.13
2022-08-08T09:27:20.412Z,1.90
2022-08-08T09:29:28.207Z,1.70
2022-08-08T09:31:57.049Z,2.10
2022-08-08T09:34:31.037Z,1.90
2022-08-08T09:36:33.697Z,3.60
2022-08-08T09:38:52.544Z,2.00
2022-08-08T09:41:00.752Z,1.80
2022-08-08T09:43:16.887Z,1.70
2022-08-08T09:46:01.895Z,2.27
2022-08-08T09:48:03.817Z,1.90
2022-08-08T09:50:14.381Z,1.67
2022-08-08T09:52:57.490Z,1.47
2022-08-08T09:54:47.384Z,1.50
2022-08-08T09:56:56.286Z,1.70
2022-08-08T09:59:15.201Z,1.50
2022-08-08T10:01:59.072Z,1.70
2022-08-08T10:03:56.311Z,1.50
2022-08-08T10:06:00.946Z,1.77
2022-08-08T10:08:04.810Z,1.70
2022-08-08T10:10:12.774Z,1.53
2022-08-08T10:12:26.756Z,1.37
2022-08-08T10:14:41.019Z,1.73
2022-08-08T10:16:46.901Z,1.27
2022-08-08T10:19:03.914Z,1.20
2022-08-08T10:21:24.966Z,1.80
2022-08-08T10:23:44.058Z,1.37
2022-08-08T10:25:57.119Z,1.50
2022-08-08T10:28:00.848Z,1.17
2022-08-08T10:30:07.999Z,1.47
2022-08-08T10:32:50.721Z,2.10
2022-08-08T10:35:01.285Z,1.30
2022-08-08T10:37:05.475Z,1.20
2022-08-08T10:39:10.180Z,1.10
2022-08-08T10:41:19.973Z,1.60
2022-08-08T10:43:24.624Z,1.30
2022-08-08T10:45:56.168Z,1.37
2022-08-08T10:48:02.112Z,1.40
2022-08-08T10:50:07.091Z,1.60
2022-08-08T10:52:09.883Z,1.57
2022-08-08T10:54:20.522Z,1.60
2022-08-08T10:56:27.708Z,1.53
2022-08-08T10:58:35.473Z,1.30
2022-08-08T11:00:52.650Z,1.40
2022-08-08T11:03:15.708Z,2.10
2022-08-08T11:05:19.617Z,1.80
2022-08-08T11:08:31.394Z,1.60
2022-08-08T11:09:52.898Z,2.10
2022-08-08T11:12:05.507Z,1.50
2022-08-08T11:14:16.690Z,1.80
2022-08-08T11:16:32.340Z,1.70
2022-08-08T11:18:37.376Z,1.80
2022-08-08T11:20:41.853Z,1.67
2022-08-08T11:22:56.557Z,1.70
2022-08-08T11:25:02.048Z,1.90
2022-08-08T11:27:19.624Z,1.47
2022-08-08T11:29:29.369Z,1.47
2022-08-08T11:31:50.112Z,1.60
2022-08-08T11:34:03.280Z,1.80
2022-08-08T11:36:19.954Z,1.40
2022-08-08T11:38:35.184Z,1.80
2022-08-08T11:40:41.762Z,1.50
2022-08-08T11:42:45.367Z,1.37
2022-08-08T11:44:49.452Z,1.40
2022-08-08T11:46:57.757Z,1.50
2022-08-08T11:49:04.185Z,1.50
2022-08-08T11:51:30.632Z,1.67
2022-08-08T11:53:31.861Z,1.60
2022-08-08T11:55:49.757Z,3.10
2022-08-08T11:58:06.834Z,3.83
2022-08-08T12:00:18.887Z,3.77
2022-08-08T12:02:41.941Z,2.33
2022-08-08T12:04:48.444Z,1.90
2022-08-08T12:06:51.295Z,1.80
2022-08-08T12:09:06.325Z,1.47
2022-08-08T12:11:12.745Z,2.00
2022-08-08T12:13:33.281Z,1.50
2022-08-08T12:15:48.220Z,1.60
2022-08-08T12:17:53.589Z,1.33
2022-08-08T12:19:58.508Z,1.10
2022-08-08T12:22:09.434Z,1.50
2022-08-08T12:24:19.362Z,1.50
2022-08-08T12:26:28.326Z,1.40
2022-08-08T12:28:38.828Z,1.30
2022-08-08T12:30:42.002Z,1.20
2022-08-08T12:32:50.857Z,1.40
2022-08-08T12:35:13.575Z,1.57
2022-08-08T12:37:22.653Z,1.73
2022-08-08T12:40:00.651Z,1.50
2022-08-08T12:42:05.893Z,1.23
2022-08-08T12:44:32.342Z,2.00
2022-08-08T12:46:36.499Z,1.63
2022-08-08T12:48:39.288Z,1.50
2022-08-08T12:50:47.068Z,1.60
2022-08-08T12:52:54.785Z,1.63
2022-08-08T12:55:13.254Z,1.60
2022-08-08T12:57:17.728Z,1.37
2022-08-08T12:59:27.250Z,1.60
2022-08-08T13:01:39.522Z,1.70
2022-08-08T13:03:49.102Z,1.90
2022-08-08T13:06:13.921Z,1.47
2022-08-08T13:08:18.131Z,1.40
2022-08-08T13:10:21.111Z,1.80
2022-08-08T13:12:33.578Z,1.57
2022-08-08T13:14:38.863Z,1.73
2022-08-08T13:16:56.530Z,1.77
2022-08-08T13:19:11.757Z,1.63
2022-08-08T13:21:17.068Z,1.50
2022-08-08T13:23:31.414Z,1.60
2022-08-08T13:25:40.211Z,1.33
2022-08-08T13:27:43.346Z,1.70
2022-08-08T13:29:51.364Z,1.60
2022-08-08T13:31:55.747Z,1.33
2022-08-08T13:33:59.918Z,1.40
2022-08-08T13:36:10.773Z,1.83
2022-08-08T13:38:20.819Z,1.60
2022-08-08T13:40:26.747Z,1.90
2022-08-08T13:42:31.303Z,1.47
2022-08-08T13:44:34.248Z,2.03
2022-08-08T13:46:53.328Z,3.73
2022-08-08T13:50:32.144Z,1.93
2022-08-08T13:51:33.454Z,2.40
2022-08-08T13:53:53.382Z,2.43
2022-08-08T13:56:06.943Z,1.87
2022-08-08T13:58:20.090Z,1.63
2022-08-08T14:00:23.894Z,1.60
2022-08-08T14:02:31.211Z,1.63
2022-08-08T14:04:37.514Z,1.67
2022-08-08T14:06:59.485Z,1.47
2022-08-08T14:09:25.228Z,7.57
2022-08-08T14:11:28.284Z,2.10
2022-08-08T14:13:34.174Z,6.70
2022-08-08T14:15:39.762Z,2.13
2022-08-08T14:17:59.275Z,1.63
2022-08-08T14:20:56.831Z,1.53
2022-08-08T14:22:43.895Z,1.30
2022-08-08T14:24:53.419Z,1.97
2022-08-08T14:26:56.703Z,1.50
2022-08-08T14:29:01.479Z,1.50
2022-08-08T14:31:10.503Z,1.50
2022-08-08T14:33:15.179Z,1.50
2022-08-08T14:35:20.060Z,1.33
2022-08-08T14:37:27.934Z,1.60
2022-08-08T14:39:53.765Z,1.93
2022-08-08T14:42:03.393Z,2.37
2022-08-08T14:44:19.538Z,1.83
2022-08-08T14:46:31.117Z,1.70
2022-08-08T14:48:52.568Z,1.33
2022-08-08T14:51:06.538Z,1.60
2022-08-08T14:53:13.463Z,1.70
2022-08-08T14:55:22.768Z,1.60
2022-08-08T14:58:06.296Z,1.43
2022-08-08T15:00:06.696Z,1.40
2022-08-08T15:02:15.249Z,1.57
2022-08-08T15:04:18.742Z,1.53
2022-08-08T15:06:22.417Z,1.63
2022-08-08T15:08:34.273Z,1.30
2022-08-08T15:10:40.131Z,1.63
2022-08-08T15:12:46.917Z,1.60
2022-08-08T15:14:49.761Z,1.40
2022-08-08T15:16:52.655Z,1.40
2022-08-08T15:18:55.429Z,1.27
2022-08-08T15:20:58.264Z,1.50
2022-08-08T15:23:01.604Z,1.47
2022-08-08T15:25:08.634Z,1.70
2022-08-08T15:28:03.460Z,1.60
2022-08-08T15:29:44.112Z,1.40
2022-08-08T15:32:19.001Z,1.30
2022-08-08T15:34:28.990Z,1.43
2022-08-08T15:36:34.045Z,1.30
2022-08-08T15:38:40.613Z,1.50
2022-08-08T15:40:52.500Z,1.17
2022-08-08T15:42:56.844Z,1.50
2022-08-08T15:45:01.056Z,1.23
2022-08-08T15:47:04.473Z,1.50
2022-08-08T15:49:07.236Z,1.23
2022-08-08T15:51:15.650Z,1.43
2022-08-08T15:53:20.679Z,1.50
2022-08-08T15:55:23.915Z,1.17
2022-08-08T15:57:26.683Z,1.37
2022-08-08T16:00:06.015Z,1.20
2022-08-08T16:02:03.281Z,1.10
2022-08-08T16:04:06.571Z,1.50
2022-08-08T16:06:28.213Z,1.20
2022-08-08T16:08:31.785Z,1.23
2022-08-08T16:13:15.269Z,1.30
2022-08-08T16:13:26.697Z,1.30
2022-08-08T16:15:23.362Z,1.17
2022-08-08T16:17:38.744Z,1.53
2022-08-08T16:19:56.852Z,1.50
2022-08-08T16:22:03.116Z,1.20
2022-08-08T16:24:07.802Z,1.53
2022-08-08T16:26:19.180Z,1.60
2022-08-08T16:28:34.970Z,1.47
2022-08-08T16:30:40.247Z,1.23
2022-08-08T16:32:43.254Z,1.50
2022-08-08T16:34:51.304Z,1.60
2022-08-08T16:36:54.101Z,1.37
2022-08-08T16:38:57.813Z,1.50
2022-08-08T16:41:02.631Z,1.40
2022-08-08T16:43:05.521Z,1.47
2022-08-08T16:45:11.558Z,1.80
2022-08-08T16:47:42.281Z,1.10
2022-08-08T16:49:47.839Z,1.53
2022-08-08T16:55:04.076Z,1.77
2022-08-08T16:55:04.913Z,1.20
2022-08-08T16:56:38.504Z,1.60
2022-08-08T16:59:01.242Z,1.10
2022-08-08T17:01:10.724Z,1.50
2022-08-08T17:03:15.373Z,1.40
2022-08-08T17:05:20.922Z,1.50
2022-08-08T17:07:24.688Z,1.40
2022-08-08T17:09:34.825Z,1.50
2022-08-08T17:11:48.795Z,1.25
2022-08-08T17:14:00.944Z,1.40
2022-08-08T17:16:05.231Z,1.37
2022-08-08T17:18:19.409Z,1.53
2022-08-08T17:20:22.661Z,1.53
2022-08-08T17:22:39.148Z,1.60
2022-08-08T17:24:53.876Z,1.70
2022-08-08T17:26:57.987Z,1.50
2022-08-08T17:29:04.371Z,1.40
2022-08-08T17:31:39.075Z,1.77
2022-08-08T17:34:36.835Z,1.13
2022-08-08T17:36:10.085Z,1.40
2022-08-08T17:38:16.686Z,1.63
2022-08-08T17:40:19.559Z,1.60
2022-08-08T17:42:22.615Z,1.30
2022-08-08T17:44:27.014Z,1.50
2022-08-08T17:46:41.127Z,1.60
2022-08-08T17:48:45.249Z,1.30
2022-08-08T17:50:50.704Z,1.10
2022-08-08T17:52:53.935Z,1.30
2022-08-08T17:55:00.548Z,1.43
2022-08-08T17:57:09.556Z,1.60
2022-08-08T17:59:12.569Z,1.10
2022-08-08T18:01:15.278Z,1.43
2022-08-08T18:03:38.343Z,1.67
2022-08-08T18:05:48.588Z,1.10
2022-08-08T18:08:24.950Z,1.57
2022-08-08T18:10:15.817Z,1.50
2022-08-08T18:12:18.638Z,1.50
2022-08-08T18:14:23.960Z,1.57
2022-08-08T18:16:31.137Z,1.70
2022-08-08T18:18:38.673Z,1.40
2022-08-08T18:20:55.313Z,1.30
2022-08-08T18:23:02.939Z,1.43
2022-08-08T18:25:06.445Z,1.30
2022-08-08T18:27:17.216Z,1.33
2022-08-08T18:29:25.778Z,1.57
2022-08-08T18:31:32.537Z,1.47
2022-08-08T18:34:10.342Z,1.63
2022-08-08T18:36:03.025Z,1.50
2022-08-08T18:38:17.334Z,1.47
2022-08-08T18:40:34.789Z,1.40
2022-08-08T18:42:37.852Z,1.40
2022-08-08T18:44:54.952Z,1.50
2022-08-08T18:47:00.036Z,1.60
2022-08-08T18:49:03.568Z,2.30
2022-08-08T18:51:33.454Z,2.03
2022-08-08T18:54:02.694Z,2.40
2022-08-08T18:55:57.185Z,2.90
2022-08-08T18:57:59.997Z,2.13
2022-08-08T19:00:03.024Z,2.13
2022-08-08T19:02:27.761Z,2.80
2022-08-08T19:04:28.995Z,2.40
2022-08-08T19:06:33.886Z,2.47
2022-08-08T19:08:37.846Z,2.13
2022-08-08T19:10:44.456Z,2.00
2022-08-08T19:12:53.154Z,2.03
2022-08-08T19:14:56.575Z,1.93
2022-08-08T19:16:59.515Z,1.90
2022-08-08T19:19:09.644Z,1.97
2022-08-08T19:21:29.236Z,1.63
2022-08-08T19:23:37.030Z,1.67
2022-08-08T19:26:19.834Z,1.60
2022-08-08T19:28:18.064Z,1.90
2022-08-08T19:30:24.474Z,1.93
2022-08-08T19:32:29.184Z,2.00
2022-08-08T19:34:38.749Z,2.40
2022-08-08T19:36:45.455Z,2.47
2022-08-08T19:38:51.393Z,3.03
2022-08-08T19:40:56.061Z,2.50
2022-08-08T19:42:59.699Z,2.63
2022-08-08T19:45:07.271Z,2.77
2022-08-08T19:47:12.473Z,2.30
2022-08-08T19:49:15.687Z,2.37
2022-08-08T19:51:24.856Z,2.47
2022-08-08T19:53:51.883Z,2.50
2022-08-08T19:55:58.365Z,2.70
2022-08-08T19:58:02.404Z,2.40
2022-08-08T20:00:11.037Z,2.50
2022-08-08T20:02:32.348Z,2.07
2022-08-08T20:04:35.500Z,1.93
2022-08-08T20:06:38.355Z,2.53
2022-08-08T20:08:48.147Z,2.07
2022-08-08T20:10:51.561Z,1.90
2022-08-08T20:13:11.335Z,1.70
2022-08-08T20:15:19.247Z,1.60
2022-08-08T20:17:27.823Z,1.70
2022-08-08T20:19:34.185Z,1.37
2022-08-08T20:21:38.433Z,1.30
2022-08-08T20:23:41.378Z,1.43
2022-08-08T20:25:44.417Z,1.47
2022-08-08T20:27:50.217Z,1.23
2022-08-08T20:30:00.912Z,1.33
2022-08-08T20:32:09.964Z,1.60
2022-08-08T20:34:29.014Z,1.30
2022-08-08T20:36:35.260Z,1.57
2022-08-08T20:38:41.635Z,1.50
2022-08-08T20:40:51.209Z,1.80
2022-08-08T20:42:56.090Z,1.50
2022-08-08T20:45:00.287Z,1.10
2022-08-08T20:47:03.673Z,1.30
2022-08-08T20:49:07.308Z,1.27
2022-08-08T20:51:14.438Z,1.20
2022-08-08T20:53:57.841Z,1.33
2022-08-08T20:55:42.585Z,1.00
2022-08-08T20:57:47.785Z,1.30
2022-08-08T20:59:54.548Z,1.10
2022-08-08T21:02:07.782Z,1.20
2022-08-08T21:04:14.197Z,1.37
2022-08-08T21:06:17.178Z,1.50
2022-08-08T21:08:37.167Z,1.30
2022-08-08T21:10:42.763Z,1.37
2022-08-08T21:12:48.423Z,1.10
2022-08-08T21:14:56.956Z,1.30
2022-08-08T21:17:06.781Z,1.17
2022-08-08T21:19:10.954Z,1.60
2022-08-08T21:21:19.790Z,1.00
2022-08-08T21:24:02.633Z,1.40
2022-08-08T21:26:00.899Z,1.30
2022-08-08T21:28:09.819Z,1.10
2022-08-08T21:30:22.055Z,1.20
2022-08-08T21:32:26.563Z,1.30
2022-08-08T21:34:29.989Z,1.00
2022-08-08T21:36:33.209Z,1.20
2022-08-08T21:38:36.189Z,1.40
2022-08-08T21:40:39.244Z,1.10
2022-08-08T21:42:58.248Z,1.30
2022-08-08T21:45:44.425Z,0.87
2022-08-08T21:48:04.362Z,1.10
2022-08-08T21:49:47.882Z,1.30
2022-08-08T21:54:31.636Z,1.23
2022-08-08T21:54:53.842Z,1.13
2022-08-08T21:56:42.126Z,1.23
2022-08-08T21:58:46.383Z,1.03
2022-08-08T22:00:57.608Z,1.47
2022-08-08T22:03:07.125Z,1.10
2022-08-08T22:05:11.890Z,1.20
2022-08-08T22:07:17.818Z,0.97
2022-08-08T22:09:26.840Z,1.20
2022-08-08T22:12:02.274Z,1.40
2022-08-08T22:14:03.039Z,1.30
2022-08-08T22:16:09.883Z,1.33
2022-08-08T22:18:12.728Z,1.33
2022-08-08T22:20:23.430Z,1.30
2022-08-08T22:22:29.185Z,1.37
2022-08-08T22:24:33.662Z,1.13
2022-08-08T22:27:02.684Z,1.40
2022-08-08T22:29:14.756Z,1.60
2022-08-08T22:31:26.450Z,1.37
2022-08-08T22:34:12.339Z,1.33
2022-08-08T22:36:04.675Z,1.43
2022-08-08T22:38:17.799Z,1.23
2022-08-08T22:40:20.832Z,1.50
2022-08-08T22:42:31.451Z,1.20
2022-08-08T22:44:35.036Z,1.33
2022-08-08T22:46:39.809Z,1.20
2022-08-08T22:48:45.523Z,1.17
2022-08-08T22:50:48.414Z,1.10
2022-08-08T22:54:23.809Z,1.33
2022-08-08T22:55:16.390Z,1.30
2022-08-08T22:57:19.145Z,1.33
2022-08-08T22:59:21.897Z,1.10
2022-08-08T23:02:01.800Z,1.27
2022-08-08T23:03:53.672Z,1.47
2022-08-08T23:06:00.098Z,1.40
2022-08-08T23:08:04.721Z,1.43
2022-08-08T23:10:09.735Z,1.50
2022-08-08T23:12:28.897Z,1.60
2022-08-08T23:14:35.210Z,1.60
2022-08-08T23:16:43.542Z,1.13
2022-08-08T23:18:47.101Z,1.50
2022-08-08T23:20:54.769Z,1.50
2022-08-08T23:22:58.360Z,1.40
2022-08-08T23:25:03.866Z,1.40
2022-08-08T23:27:07.641Z,1.33
2022-08-08T23:29:10.933Z,1.40
2022-08-08T23:31:14.040Z,1.40
2022-08-08T23:33:35.944Z,1.40
2022-08-08T23:36:07.489Z,1.30
2022-08-08T23:38:04.807Z,1.53
2022-08-08T23:40:10.500Z,1.10
2022-08-08T23:42:13.419Z,1.20
2022-08-08T23:44:16.196Z,1.20
2022-08-08T23:49:02.104Z,1.23
2022-08-08T23:49:04.917Z,1.40
2022-08-08T23:51:12.909Z,1.30
2022-08-08T23:54:05.169Z,1.40
2022-08-08T23:55:54.732Z,1.47
2022-08-08T23:58:01.815Z,1.47
